Time;durP1;ratioP1;P1;durP2;ratioP2;P2;SDS_P1;SDS_P2;PMS_P1;PMS_P2;Temp;Humidity;BMP_temperature;BMP_pressure;BME280_temperature;BME280_humidity;BME280_pressure;Samples;Min_cycle;Max_cycle;Signal;HPM_P1;HPM_P2
2023/10/06 00:01:49;;;;;;;11.97;11.07;;;12.50;85.90;;;;;;6277531;28;20241;-81
2023/10/06 00:04:53;;;;;;;16.23;14.60;;;12.50;85.90;;;;;;6288551;28;20783;-84
2023/10/06 00:07:57;;;;;;;14.20;12.80;;;12.50;85.70;;;;;;6275105;28;21121;-81
2023/10/06 00:11:11;;;;;;;14.63;13.13;;;12.50;85.70;;;;;;6279543;28;20325;-82
2023/10/06 00:14:19;;;;;;;13.67;12.40;;;12.50;85.70;;;;;;6290708;28;20237;-80
2023/10/06 00:17:28;;;;;;;12.97;11.87;;;12.50;85.70;;;;;;6280051;28;20288;-82
2023/10/06 00:20:39;;;;;;;12.00;11.00;;;12.50;85.70;;;;;;6285228;28;20670;-81
2023/10/06 00:23:44;;;;;;;9.87;9.27;;;12.50;85.70;;;;;;6279798;28;20775;-83
2023/10/06 00:26:49;;;;;;;9.10;8.50;;;12.50;85.70;;;;;;6278735;28;20256;-79
2023/10/06 00:29:54;;;;;;;10.37;9.57;;;12.40;85.50;;;;;;6289740;28;20741;-83
2023/10/06 00:33:00;;;;;;;10.10;9.30;;;12.40;85.60;;;;;;6265901;28;20323;-83
2023/10/06 00:36:11;;;;;;;13.73;12.43;;;12.40;85.60;;;;;;6282460;28;20244;-84
2023/10/06 00:39:17;;;;;;;12.30;11.00;;;12.40;85.80;;;;;;6281777;28;20244;-78
2023/10/06 00:42:20;;;;;;;13.13;11.93;;;12.40;85.90;;;;;;6291875;28;20367;-84
2023/10/06 00:45:25;;;;;;;11.90;10.87;;;12.50;85.80;;;;;;6293090;28;20642;-82
2023/10/06 00:48:30;;;;;;;13.67;12.30;;;12.50;85.80;;;;;;6294391;28;20240;-81
2023/10/06 00:51:33;;;;;;;13.70;12.30;;;12.50;85.90;;;;;;6280597;28;20218;-81
2023/10/06 00:54:39;;;;;;;14.50;13.20;;;12.50;86.10;;;;;;6288508;28;20241;-80
2023/10/06 00:57:46;;;;;;;16.10;12.70;;;12.50;86.10;;;;;;6287322;28;20321;-84
2023/10/06 01:00:56;;;;;;;17.80;13.80;;;12.50;86.10;;;;;;6280799;28;20240;-82
2023/10/06 01:04:01;;;;;;;13.97;12.67;;;12.50;86.10;;;;;;6284948;28;20248;-81
2023/10/06 01:07:07;;;;;;;12.63;11.43;;;12.50;86.10;;;;;;6287535;28;20272;-81
2023/10/06 01:10:17;;;;;;;14.13;12.83;;;12.50;86.10;;;;;;6276841;28;20305;-82
2023/10/06 01:13:22;;;;;;;15.83;13.67;;;12.60;86.10;;;;;;6279173;28;20252;-80
2023/10/06 01:16:31;;;;;;;15.13;13.13;;;12.70;85.90;;;;;;6282265;28;20381;-81
2023/10/06 01:19:34;;;;;;;15.67;14.03;;;12.70;85.80;;;;;;6288632;28;20257;-80
2023/10/06 01:22:44;;;;;;;14.40;12.97;;;12.70;85.70;;;;;;6276120;28;20820;-80
2023/10/06 01:25:47;;;;;;;14.37;13.10;;;12.70;85.20;;;;;;6283067;28;20233;-83
2023/10/06 01:28:51;;;;;;;15.00;12.87;;;12.70;85.00;;;;;;6273590;28;20241;-81
2023/10/06 01:31:54;;;;;;;14.10;12.90;;;12.70;84.60;;;;;;6290464;28;20229;-81
2023/10/06 01:34:57;;;;;;;13.70;12.50;;;12.60;84.60;;;;;;6279120;28;20230;-82
2023/10/06 01:38:05;;;;;;;14.37;13.00;;;12.50;84.70;;;;;;6278047;28;20764;-82
2023/10/06 01:41:09;;;;;;;13.97;12.77;;;12.50;84.70;;;;;;6270531;28;20376;-79
2023/10/06 01:44:12;;;;;;;12.13;10.97;;;12.50;84.40;;;;;;6275980;28;20245;-81
2023/10/06 01:47:18;;;;;;;13.43;12.23;;;12.50;84.60;;;;;;6280807;28;20384;-79
2023/10/06 01:50:26;;;;;;;12.40;11.33;;;12.50;84.50;;;;;;6288341;28;20735;-81
2023/10/06 01:53:33;;;;;;;14.37;13.00;;;12.50;84.30;;;;;;6286255;28;20363;-81
2023/10/06 01:56:37;;;;;;;13.83;12.80;;;12.50;84.30;;;;;;6278546;28;20276;-80
2023/10/06 01:59:40;;;;;;;14.90;13.40;;;12.50;84.40;;;;;;6271349;28;20260;-81
2023/10/06 02:02:50;;;;;;;13.10;11.90;;;12.40;84.60;;;;;;6283409;28;20244;-82
2023/10/06 02:05:59;;;;;;;14.93;13.50;;;12.30;84.80;;;;;;6277495;28;20270;-85
2023/10/06 02:09:05;;;;;;;13.67;12.37;;;12.40;84.80;;;;;;6289049;28;20232;-80
2023/10/06 02:12:09;;;;;;;14.63;12.20;;;12.50;84.80;;;;;;6272258;28;20318;-80
2023/10/06 02:15:13;;;;;;;12.47;11.20;;;12.50;84.70;;;;;;6271670;28;20265;-80
2023/10/06 02:18:16;;;;;;;15.70;14.10;;;12.50;84.70;;;;;;6279851;28;20277;-79
2023/10/06 02:21:24;;;;;;;11.57;10.53;;;12.50;84.70;;;;;;6278860;28;20240;-80
2023/10/06 02:24:28;;;;;;;17.20;15.47;;;12.50;84.80;;;;;;6277565;28;20238;-81
2023/10/06 02:27:43;;;;;;;15.00;13.50;;;12.50;84.90;;;;;;6286790;28;20226;-81
2023/10/06 02:30:51;;;;;;;15.50;13.77;;;12.50;85.00;;;;;;6287112;28;20374;-82
2023/10/06 02:33:55;;;;;;;17.13;14.60;;;12.50;85.20;;;;;;6264041;28;20248;-82
2023/10/06 02:37:00;;;;;;;16.50;14.57;;;12.50;85.40;;;;;;6287056;28;20324;-82
2023/10/06 02:40:11;;;;;;;17.03;15.00;;;12.60;85.50;;;;;;6286328;28;20237;-81
2023/10/06 02:43:16;;;;;;;17.90;14.97;;;12.60;85.40;;;;;;6261326;28;20717;-82
2023/10/06 02:46:22;;;;;;;15.60;14.17;;;12.70;85.50;;;;;;6286979;28;20237;-80
2023/10/06 02:49:31;;;;;;;17.33;15.53;;;12.70;85.40;;;;;;6283079;28;20229;-82
2023/10/06 02:52:39;;;;;;;17.17;15.67;;;12.80;85.40;;;;;;6287889;28;20221;-83
2023/10/06 02:55:44;;;;;;;17.90;16.20;;;12.70;85.70;;;;;;6282470;28;20550;-83
2023/10/06 02:58:50;;;;;;;16.50;14.73;;;12.70;85.70;;;;;;6276920;28;20244;-80
2023/10/06 03:01:56;;;;;;;18.13;16.13;;;12.80;85.70;;;;;;6296387;28;20749;-82
2023/10/06 03:05:10;;;;;;;19.53;17.70;;;12.80;85.60;;;;;;6289620;28;20260;-82
2023/10/06 03:08:14;;;;;;;15.97;14.40;;;12.80;85.70;;;;;;6287471;28;20476;-81
2023/10/06 03:11:23;;;;;;;12.77;11.70;;;12.80;85.70;;;;;;6290523;28;20735;-83
2023/10/06 03:14:38;;;;;;;17.60;15.47;;;12.90;85.70;;;;;;6279246;28;20249;-82
2023/10/06 03:17:43;;;;;;;16.43;14.90;;;13.00;85.50;;;;;;6275765;28;20245;-80
2023/10/06 03:20:53;;;;;;;15.57;13.97;;;13.00;85.50;;;;;;6277468;28;20252;-80
2023/10/06 03:24:04;;;;;;;17.60;15.83;;;13.00;85.40;;;;;;6280531;28;20242;-82
2023/10/06 03:27:12;;;;;;;17.00;15.27;;;13.00;85.20;;;;;;6289446;28;20233;-80
2023/10/06 03:30:19;;;;;;;17.60;15.90;;;13.00;85.00;;;;;;6291109;28;20244;-83
2023/10/06 03:33:23;;;;;;;14.97;13.57;;;13.10;85.10;;;;;;6254666;28;20233;-81
2023/10/06 03:36:36;;;;;;;17.50;15.77;;;13.10;85.10;;;;;;6258572;28;20310;-83
2023/10/06 03:39:48;;;;;;;15.20;13.90;;;13.10;85.10;;;;;;6274424;28;20252;-80
2023/10/06 03:42:53;;;;;;;15.97;14.50;;;13.10;85.00;;;;;;6285234;28;20295;-82
2023/10/06 03:45:57;;;;;;;18.97;17.13;;;13.10;85.00;;;;;;6279426;28;20244;-82
2023/10/06 03:49:03;;;;;;;17.73;15.03;;;13.10;85.00;;;;;;6280689;28;20320;-81
2023/10/06 03:52:09;;;;;;;16.73;15.13;;;13.00;85.10;;;;;;6262262;28;20286;-82
2023/10/06 03:55:13;;;;;;;18.73;16.80;;;13.10;85.00;;;;;;6268786;28;20288;-80
2023/10/06 03:58:19;;;;;;;16.53;15.07;;;13.10;85.00;;;;;;6278933;28;20241;-83
2023/10/06 04:01:26;;;;;;;17.57;15.93;;;13.10;85.00;;;;;;6275711;28;20323;-82
2023/10/06 04:04:29;;;;;;;20.80;18.57;;;13.10;85.00;;;;;;6293746;28;20233;-84
2023/10/06 04:07:32;;;;;;;17.30;15.63;;;13.10;84.90;;;;;;6287396;28;20244;-82
2023/10/06 04:10:36;;;;;;;19.37;17.33;;;13.10;85.00;;;;;;6285623;28;20737;-84
2023/10/06 04:13:41;;;;;;;17.73;15.97;;;13.10;85.00;;;;;;6275975;28;20244;-80
2023/10/06 04:16:45;;;;;;;21.33;19.20;;;13.20;84.70;;;;;;6278725;28;20321;-83
2023/10/06 04:19:51;;;;;;;18.30;16.50;;;13.20;84.70;;;;;;6275855;28;20311;-82
2023/10/06 04:22:54;;;;;;;14.83;13.53;;;13.10;84.70;;;;;;6279878;28;20379;-82
2023/10/06 04:25:57;;;;;;;21.67;17.03;;;13.10;84.70;;;;;;6270676;28;20238;-81
2023/10/06 04:29:04;;;;;;;21.53;19.27;;;13.10;84.70;;;;;;6286790;28;20237;-82
2023/10/06 04:32:07;;;;;;;19.67;17.77;;;13.10;84.80;;;;;;6276145;28;20318;-82
2023/10/06 04:35:19;;;;;;;18.53;16.73;;;13.10;85.00;;;;;;6277920;28;20229;-81
2023/10/06 04:38:23;;;;;;;21.80;19.20;;;13.00;85.00;;;;;;6282166;28;20320;-83
2023/10/06 04:41:26;;;;;;;21.63;19.43;;;13.10;84.90;;;;;;6281482;28;20229;-81
2023/10/06 04:44:31;;;;;;;21.40;19.37;;;13.00;85.10;;;;;;6284132;28;20316;-80
2023/10/06 04:47:36;;;;;;;24.50;20.00;;;13.00;85.20;;;;;;6288656;28;20236;-80
2023/10/06 04:50:42;;;;;;;23.43;20.93;;;13.00;85.20;;;;;;6283205;28;20248;-80
2023/10/06 04:53:47;;;;;;;22.33;20.13;;;13.00;85.30;;;;;;6282499;28;20241;-79
2023/10/06 04:56:52;;;;;;;30.17;22.53;;;13.00;85.20;;;;;;6271352;28;20233;-80
2023/10/06 04:59:56;;;;;;;24.00;21.40;;;13.00;85.30;;;;;;6261188;28;20275;-79
2023/10/06 05:03:03;;;;;;;26.27;23.07;;;13.00;85.40;;;;;;6288018;28;20596;-76
2023/10/06 05:06:09;;;;;;;33.10;25.37;;;13.00;85.20;;;;;;6307658;28;20228;-76
2023/10/06 05:09:13;;;;;;;27.47;24.47;;;12.90;85.50;;;;;;6307965;28;20244;-76
2023/10/06 05:12:18;;;;;;;28.57;24.50;;;12.80;85.60;;;;;;6316960;28;20228;-79
2023/10/06 05:15:26;;;;;;;32.17;24.97;;;12.90;85.60;;;;;;6315069;28;20279;-77
2023/10/06 05:18:29;;;;;;;34.90;26.00;;;12.80;85.80;;;;;;6308841;28;20316;-79
2023/10/06 05:21:32;;;;;;;33.93;25.40;;;12.80;86.00;;;;;;6315203;28;20221;-77
2023/10/06 05:24:35;;;;;;;31.83;26.63;;;12.80;86.10;;;;;;6315363;28;20226;-81
2023/10/06 05:27:38;;;;;;;31.67;26.13;;;12.80;86.00;;;;;;6304089;28;20251;-80
2023/10/06 05:30:43;;;;;;;33.53;27.07;;;12.70;86.00;;;;;;6315631;28;20238;-82
2023/10/06 05:33:46;;;;;;;35.23;27.47;;;12.80;86.20;;;;;;6312235;28;20244;-80
2023/10/06 05:36:51;;;;;;;30.03;26.50;;;12.80;86.20;;;;;;6317041;28;20280;-82
2023/10/06 05:39:54;;;;;;;33.00;25.40;;;12.80;86.00;;;;;;6313293;28;20226;-79
2023/10/06 05:42:57;;;;;;;31.63;25.20;;;12.80;86.10;;;;;;6315283;28;20217;-79
2023/10/06 05:46:03;;;;;;;31.20;25.83;;;12.80;86.10;;;;;;6312761;28;20226;-80
2023/10/06 05:49:08;;;;;;;30.07;25.37;;;12.90;86.00;;;;;;6317032;28;20221;-80
2023/10/06 05:52:13;;;;;;;29.63;25.17;;;12.90;85.70;;;;;;6319083;28;20247;-80
2023/10/06 05:55:19;;;;;;;27.03;23.80;;;12.90;85.60;;;;;;6316225;28;20225;-80
2023/10/06 05:58:23;;;;;;;26.40;23.57;;;12.90;85.30;;;;;;6316627;28;20434;-81
2023/10/06 06:01:32;;;;;;;31.00;23.77;;;12.90;85.20;;;;;;6322665;28;20217;-81
2023/10/06 06:04:37;;;;;;;25.77;23.10;;;12.90;85.00;;;;;;6314957;28;20248;-82
2023/10/06 06:07:42;;;;;;;29.97;23.73;;;12.80;85.20;;;;;;6317203;28;20223;-78
2023/10/06 06:10:46;;;;;;;26.37;22.37;;;12.90;85.20;;;;;;6302273;28;20222;-78
2023/10/06 06:13:51;;;;;;;26.63;23.07;;;12.90;84.80;;;;;;6313505;28;20296;-80
2023/10/06 06:17:10;;;;;;;27.77;21.57;;;12.80;84.80;;;;;;6311263;28;20345;-79
2023/10/06 06:20:18;;;;;;;25.03;22.50;;;12.90;84.70;;;;;;6309357;28;20293;-80
2023/10/06 06:23:21;;;;;;;26.63;22.73;;;13.00;84.70;;;;;;6294865;28;20241;-81
2023/10/06 06:26:25;;;;;;;24.70;22.17;;;13.00;84.40;;;;;;6282972;28;21360;-79
2023/10/06 06:29:29;;;;;;;22.77;20.37;;;13.00;84.00;;;;;;6287957;28;20264;-79
2023/10/06 06:32:35;;;;;;;24.13;20.23;;;13.10;83.90;;;;;;6306146;28;20233;-82
2023/10/06 06:35:38;;;;;;;24.77;21.93;;;13.20;83.50;;;;;;6279609;28;20241;-81
2023/10/06 06:38:41;;;;;;;24.77;21.73;;;13.30;83.00;;;;;;6275281;28;20245;-81
2023/10/06 06:41:44;;;;;;;28.60;22.40;;;13.40;82.90;;;;;;6278271;28;20315;-81
2023/10/06 06:44:50;;;;;;;30.17;24.67;;;13.50;81.80;;;;;;6290655;28;20332;-83
2023/10/06 06:47:56;;;;;;;22.60;20.00;;;13.50;82.10;;;;;;6287446;28;20241;-80
2023/10/06 06:50:59;;;;;;;21.10;18.93;;;13.50;81.50;;;;;;6286729;28;20796;-81
2023/10/06 06:54:05;;;;;;;21.07;19.30;;;13.60;81.30;;;;;;6282460;28;20320;-81
2023/10/06 06:57:12;;;;;;;20.90;18.67;;;13.50;81.40;;;;;;6279474;28;20256;-82
2023/10/06 07:00:18;;;;;;;23.93;19.30;;;13.50;81.40;;;;;;6283660;28;20229;-79
2023/10/06 07:03:23;;;;;;;21.40;19.17;;;13.50;81.40;;;;;;6282402;28;20233;-80
2023/10/06 07:06:26;;;;;;;21.83;18.83;;;13.70;81.20;;;;;;6280248;28;20237;-80
2023/10/06 07:09:30;;;;;;;22.97;18.00;;;13.90;80.80;;;;;;6281465;28;20256;-79
2023/10/06 07:12:33;;;;;;;21.03;17.33;;;13.90;80.40;;;;;;6279258;28;20226;-81
2023/10/06 07:15:36;;;;;;;21.43;17.70;;;14.00;80.00;;;;;;6281524;28;20316;-81
2023/10/06 07:18:41;;;;;;;18.83;16.93;;;14.00;79.70;;;;;;6275513;28;20241;-83
2023/10/06 07:21:44;;;;;;;19.53;17.37;;;14.10;79.20;;;;;;6278659;28;20229;-80
2023/10/06 07:24:49;;;;;;;18.77;16.90;;;13.90;79.40;;;;;;6280877;28;20234;-82
2023/10/06 07:27:55;;;;;;;19.43;17.33;;;14.00;79.10;;;;;;6285438;28;20240;-81
2023/10/06 07:30:59;;;;;;;21.43;16.97;;;14.10;78.90;;;;;;6268310;28;20269;-81
2023/10/06 07:34:05;;;;;;;21.50;17.70;;;14.20;78.60;;;;;;6281507;28;20249;-78
2023/10/06 07:37:12;;;;;;;20.53;15.87;;;14.20;78.40;;;;;;6277217;28;20230;-80
2023/10/06 07:40:18;;;;;;;17.60;15.90;;;14.30;78.50;;;;;;6278925;28;20256;-82
2023/10/06 07:43:22;;;;;;;19.73;16.00;;;14.30;78.00;;;;;;6288879;28;20238;-83
2023/10/06 07:46:26;;;;;;;18.53;15.50;;;14.20;77.70;;;;;;6284089;28;20292;-80
2023/10/06 07:49:34;;;;;;;17.73;15.23;;;14.30;78.20;;;;;;6294083;28;20237;-81
2023/10/06 07:52:37;;;;;;;18.10;15.30;;;14.40;77.90;;;;;;6285153;28;20754;-82
2023/10/06 07:55:40;;;;;;;13.97;12.67;;;14.60;77.40;;;;;;6291026;28;20233;-80
2023/10/06 07:58:44;;;;;;;14.33;13.13;;;14.70;77.80;;;;;;6291103;28;20233;-82
2023/10/06 08:01:48;;;;;;;14.90;13.50;;;14.80;76.90;;;;;;6284046;28;20261;-81
2023/10/06 08:04:53;;;;;;;14.93;13.23;;;14.80;76.40;;;;;;6276948;28;20401;-79
2023/10/06 08:07:57;;;;;;;13.67;12.37;;;14.90;76.40;;;;;;6284402;28;20705;-81
2023/10/06 08:11:03;;;;;;;13.20;12.00;;;15.00;75.70;;;;;;6291532;28;20252;-82
2023/10/06 08:14:07;;;;;;;14.97;12.50;;;15.00;76.20;;;;;;6277729;28;20233;-82
2023/10/06 08:17:10;;;;;;;16.43;12.63;;;15.30;75.40;;;;;;6286760;28;20239;-83
2023/10/06 08:20:16;;;;;;;15.37;12.13;;;15.40;74.20;;;;;;6282606;28;20242;-80
2023/10/06 08:23:19;;;;;;;15.10;11.60;;;15.00;74.40;;;;;;6279877;28;20234;-82
2023/10/06 08:26:22;;;;;;;16.13;12.10;;;15.00;75.20;;;;;;6282534;28;20262;-79
2023/10/06 08:29:26;;;;;;;13.07;11.60;;;15.00;74.70;;;;;;6278307;28;20226;-82
2023/10/06 08:32:29;;;;;;;13.30;12.10;;;15.00;75.10;;;;;;6284199;28;20741;-83
2023/10/06 08:35:34;;;;;;;15.50;11.53;;;15.00;74.20;;;;;;6287312;28;20248;-79
2023/10/06 08:38:37;;;;;;;12.67;11.33;;;15.10;74.50;;;;;;6286486;28;20233;-80
2023/10/06 08:41:45;;;;;;;14.57;11.87;;;15.20;74.00;;;;;;6286220;28;20271;-80
2023/10/06 08:44:49;;;;;;;10.77;9.90;;;15.20;73.90;;;;;;6286781;28;20301;-81
2023/10/06 08:47:58;;;;;;;12.70;11.33;;;15.30;73.90;;;;;;6286120;28;20241;-78
2023/10/06 08:51:14;;;;;;;13.03;11.03;;;15.20;74.10;;;;;;6277202;28;20784;-84
2023/10/06 08:54:19;;;;;;;12.83;10.17;;;15.30;74.10;;;;;;6280583;28;20237;-79
2023/10/06 08:57:24;;;;;;;11.27;9.97;;;15.40;74.10;;;;;;6271783;28;20233;-81
2023/10/06 09:00:31;;;;;;;11.60;10.60;;;15.60;73.60;;;;;;6285439;28;20244;-78
2023/10/06 09:03:38;;;;;;;12.83;10.07;;;15.60;73.10;;;;;;6289219;28;20744;-82
2023/10/06 09:07:08;;;;;;;12.67;10.23;;;15.60;73.50;;;;;;6287197;28;20622;-84
2023/10/06 09:10:18;;;;;;;10.73;9.83;;;15.80;73.30;;;;;;6286612;28;20232;-82
2023/10/06 09:13:22;;;;;;;10.30;9.40;;;16.00;73.50;;;;;;6268888;28;20237;-78
2023/10/06 09:16:49;;;;;;;10.13;8.97;;;16.00;72.90;;;;;;6287864;28;20316;-81
2023/10/06 09:19:52;;;;;;;9.87;8.33;;;16.20;72.20;;;;;;6287285;28;20333;-80
2023/10/06 09:22:58;;;;;;;9.70;8.87;;;16.20;71.00;;;;;;6284726;28;20743;-80
2023/10/06 09:26:03;;;;;;;9.70;8.77;;;16.20;71.50;;;;;;6286242;28;20709;-81
2023/10/06 09:29:07;;;;;;;8.50;7.87;;;16.20;72.00;;;;;;6275341;28;20834;-81
2023/10/06 09:32:21;;;;;;;9.17;7.83;;;16.10;71.80;;;;;;6277501;28;20237;-80
2023/10/06 09:35:25;;;;;;;8.57;7.67;;;16.30;70.90;;;;;;6282978;28;20256;-78
2023/10/06 09:38:30;;;;;;;8.83;7.53;;;16.40;71.40;;;;;;6278378;28;21227;-81
2023/10/06 09:41:33;;;;;;;7.33;6.80;;;16.50;71.20;;;;;;6278261;28;20246;-80
2023/10/06 09:44:39;;;;;;;7.33;6.13;;;16.60;71.00;;;;;;6287294;28;20249;-80
2023/10/06 09:47:49;;;;;;;6.70;6.03;;;16.80;70.70;;;;;;6277637;28;20241;-80
2023/10/06 09:50:57;;;;;;;11.90;6.83;;;16.80;68.60;;;;;;6285831;28;20248;-80
2023/10/06 09:54:04;;;;;;;6.40;5.80;;;16.80;67.80;;;;;;6277816;28;20233;-82
2023/10/06 09:57:10;;;;;;;10.77;5.63;;;16.70;67.80;;;;;;6273018;28;20842;-82
2023/10/06 10:00:17;;;;;;;11.07;5.63;;;16.80;67.10;;;;;;6274513;28;21453;-85
2023/10/06 10:03:23;;;;;;;6.33;5.30;;;16.80;67.20;;;;;;6277527;28;20760;-79
2023/10/06 10:06:29;;;;;;;5.83;5.07;;;16.70;67.60;;;;;;6286325;28;20362;-82
2023/10/06 10:09:35;;;;;;;5.33;4.97;;;16.90;67.30;;;;;;6252134;28;20264;-78
2023/10/06 10:12:54;;;;;;;8.27;6.23;;;17.00;67.20;;;;;;6267346;28;20233;-76
2023/10/06 10:16:12;;;;;;;14.67;10.17;;;16.80;67.20;;;;;;6280964;28;20324;-79
2023/10/06 10:19:20;;;;;;;9.67;7.30;;;16.90;67.60;;;;;;6283571;28;20229;-81
2023/10/06 10:22:23;;;;;;;12.67;11.33;;;17.00;67.20;;;;;;6279600;28;20229;-81
2023/10/06 10:25:30;;;;;;;9.37;8.43;;;17.10;67.50;;;;;;6279066;28;20244;-79
2023/10/06 10:28:36;;;;;;;7.70;5.37;;;17.20;66.90;;;;;;6280479;28;20243;-80
2023/10/06 10:31:39;;;;;;;4.77;4.37;;;17.20;66.50;;;;;;6283362;28;20248;-79
2023/10/06 10:35:08;;;;;;;7.60;5.00;;;17.00;65.70;;;;;;6275672;28;20233;-81
2023/10/06 10:38:13;;;;;;;6.53;4.53;;;17.00;65.60;;;;;;6284469;28;20233;-80
2023/10/06 10:41:17;;;;;;;5.83;4.67;;;17.00;65.70;;;;;;6278140;28;20253;-80
2023/10/06 10:44:23;;;;;;;4.93;4.43;;;17.00;65.80;;;;;;6281894;28;20237;-82
2023/10/06 10:47:29;;;;;;;4.80;4.40;;;17.00;64.80;;;;;;6275845;28;20230;-82
2023/10/06 10:51:01;;;;;;;5.73;5.13;;;17.00;65.70;;;;;;6270971;28;20241;-80
2023/10/06 10:54:06;;;;;;;5.20;4.80;;;16.80;65.10;;;;;;6280480;28;20233;-81
2023/10/06 10:57:13;;;;;;;4.90;4.17;;;16.80;65.60;;;;;;6280472;28;20272;-79
2023/10/06 11:00:20;;;;;;;6.67;4.80;;;16.90;64.70;;;;;;6278411;28;20261;-83
2023/10/06 11:03:23;;;;;;;7.17;4.03;;;16.90;65.50;;;;;;6279869;28;20271;-81
2023/10/06 11:06:27;;;;;;;4.87;3.80;;;17.00;64.40;;;;;;6286160;28;20237;-80
2023/10/06 11:09:36;;;;;;;5.43;4.20;;;17.00;64.60;;;;;;6280247;28;20240;-80
2023/10/06 11:12:42;;;;;;;4.10;3.60;;;17.00;63.70;;;;;;6272123;28;20246;-79
2023/10/06 11:15:45;;;;;;;5.00;4.70;;;17.00;63.90;;;;;;6282090;28;20229;-80
2023/10/06 11:18:49;;;;;;;4.77;4.37;;;17.00;63.80;;;;;;6280809;28;20724;-81
2023/10/06 11:21:53;;;;;;;5.77;3.93;;;17.00;63.80;;;;;;6277863;28;20234;-78
2023/10/06 11:25:02;;;;;;;10.67;8.17;;;17.00;63.90;;;;;;6282595;28;20233;-78
2023/10/06 11:28:12;;;;;;;5.50;3.87;;;17.10;63.10;;;;;;6287172;28;20720;-82
2023/10/06 11:31:16;;;;;;;8.10;4.30;;;17.00;63.00;;;;;;6276204;28;20230;-82
2023/10/06 11:34:24;;;;;;;4.40;4.10;;;17.20;63.50;;;;;;6282916;28;20249;-78
2023/10/06 11:37:29;;;;;;;6.13;3.93;;;17.20;63.20;;;;;;6283079;28;20233;-83
2023/10/06 11:40:34;;;;;;;5.23;4.77;;;17.30;63.20;;;;;;6287194;28;20889;-83
2023/10/06 11:43:39;;;;;;;6.60;4.17;;;17.40;63.00;;;;;;6277195;28;20823;-86
2023/10/06 11:46:49;;;;;;;4.33;4.03;;;17.60;62.30;;;;;;6280534;28;20298;-82
2023/10/06 11:49:56;;;;;;;5.13;4.30;;;17.60;62.20;;;;;;6279965;28;20234;-81
2023/10/06 11:52:59;;;;;;;5.23;4.10;;;17.50;62.70;;;;;;6283898;28;20300;-81
2023/10/06 11:56:07;;;;;;;9.07;6.23;;;17.50;63.30;;;;;;6267380;28;20724;-83
2023/10/06 11:59:22;;;;;;;8.77;4.60;;;17.80;62.80;;;;;;6282241;28;20233;-82
2023/10/06 12:02:25;;;;;;;6.30;3.87;;;17.90;62.80;;;;;;6272411;28;20356;-81
2023/10/06 12:05:31;;;;;;;4.20;3.90;;;18.20;62.10;;;;;;6269218;28;20325;-81
2023/10/06 12:08:41;;;;;;;5.13;3.90;;;18.10;61.40;;;;;;6283965;28;20729;-81
2023/10/06 12:11:44;;;;;;;5.87;4.10;;;18.20;62.00;;;;;;6278422;28;20244;-81
2023/10/06 12:14:50;;;;;;;4.20;3.90;;;17.90;62.40;;;;;;6279420;28;20375;-84
2023/10/06 12:17:53;;;;;;;5.00;3.50;;;18.00;62.00;;;;;;6275122;28;20334;-80
2023/10/06 12:20:57;;;;;;;4.83;3.60;;;18.10;62.40;;;;;;6280427;28;20241;-81
2023/10/06 12:24:00;;;;;;;5.33;3.73;;;18.20;62.10;;;;;;6282111;28;20842;-81
2023/10/06 12:27:04;;;;;;;3.73;3.43;;;18.30;61.10;;;;;;6286411;28;20718;-80
2023/10/06 12:30:09;;;;;;;4.40;4.00;;;18.30;61.30;;;;;;6280373;28;20233;-82
2023/10/06 12:33:14;;;;;;;5.73;3.73;;;18.20;61.00;;;;;;6283091;28;20327;-80
2023/10/06 12:36:18;;;;;;;5.57;3.80;;;18.10;61.40;;;;;;6283376;28;20225;-81
2023/10/06 12:39:34;;;;;;;6.63;3.97;;;18.20;61.90;;;;;;6285006;28;20595;-80
2023/10/06 12:42:38;;;;;;;3.90;3.60;;;18.10;61.50;;;;;;6284585;28;20382;-80
2023/10/06 12:45:43;;;;;;;13.77;10.53;;;17.90;61.60;;;;;;6269509;28;20241;-82
2023/10/06 12:48:47;;;;;;;3.80;3.50;;;17.80;61.30;;;;;;6277377;28;20690;-81
2023/10/06 12:51:50;;;;;;;3.70;3.27;;;17.60;61.70;;;;;;6288419;28;20240;-82
2023/10/06 12:54:53;;;;;;;3.93;3.63;;;17.60;62.10;;;;;;6284465;28;20725;-83
2023/10/06 12:57:57;;;;;;;11.53;4.00;;;17.60;62.20;;;;;;6282016;28;20283;-80
2023/10/06 13:01:07;;;;;;;3.67;3.40;;;17.70;61.50;;;;;;6271458;28;20229;-81
2023/10/06 13:04:13;;;;;;;4.03;3.67;;;17.60;61.70;;;;;;6282893;28;20702;-80
2023/10/06 13:07:19;;;;;;;6.40;3.70;;;17.50;61.70;;;;;;6285067;28;20230;-81
2023/10/06 13:10:23;;;;;;;3.63;3.33;;;17.70;61.90;;;;;;6281371;28;20225;-81
2023/10/06 13:13:26;;;;;;;5.17;3.67;;;17.70;61.70;;;;;;6285275;28;20283;-83
2023/10/06 13:16:31;;;;;;;4.53;3.43;;;17.70;61.40;;;;;;6285392;28;20382;-80
2023/10/06 13:19:36;;;;;;;4.50;3.60;;;17.70;61.70;;;;;;6277956;28;20321;-80
2023/10/06 13:22:39;;;;;;;5.53;4.00;;;17.70;61.60;;;;;;6283370;28;20291;-80
2023/10/06 13:25:45;;;;;;;4.00;3.57;;;17.50;61.80;;;;;;6286088;28;20236;-82
2023/10/06 13:28:50;;;;;;;5.10;4.20;;;17.50;61.90;;;;;;6283032;28;20260;-81
2023/10/06 13:31:55;;;;;;;5.30;3.90;;;17.50;62.30;;;;;;6282580;28;20264;-80
2023/10/06 13:34:59;;;;;;;4.37;3.97;;;17.50;62.30;;;;;;6273372;28;20258;-80
2023/10/06 13:38:02;;;;;;;3.90;3.47;;;17.40;63.90;;;;;;6278806;28;20226;-82
2023/10/06 13:41:08;;;;;;;4.13;3.77;;;17.30;65.00;;;;;;6283163;28;20237;-80
2023/10/06 13:44:11;;;;;;;3.67;3.37;;;16.90;66.40;;;;;;6286292;28;20233;-82
2023/10/06 13:47:17;;;;;;;4.53;3.97;;;16.70;67.40;;;;;;6281498;28;20374;-82
2023/10/06 13:50:21;;;;;;;5.77;3.97;;;16.60;67.40;;;;;;6286147;28;20221;-84
2023/10/06 13:53:27;;;;;;;4.03;3.73;;;16.60;68.10;;;;;;6282833;28;20237;-80
2023/10/06 13:56:33;;;;;;;4.73;3.80;;;16.60;68.30;;;;;;6278401;28;20236;-80
2023/10/06 13:59:42;;;;;;;5.23;4.30;;;16.50;68.40;;;;;;6283686;28;20865;-84
2023/10/06 14:02:48;;;;;;;5.93;4.20;;;16.50;69.20;;;;;;6280119;28;20269;-82
2023/10/06 14:05:53;;;;;;;5.23;4.73;;;16.40;70.10;;;;;;6285492;28;20739;-81
2023/10/06 14:08:56;;;;;;;5.73;4.50;;;16.20;70.70;;;;;;6281860;28;20244;-80
2023/10/06 14:12:01;;;;;;;6.83;4.60;;;16.10;70.90;;;;;;6276386;28;20234;-79
2023/10/06 14:15:21;;;;;;;6.40;4.20;;;16.10;71.40;;;;;;6275713;28;20264;-81
2023/10/06 14:18:28;;;;;;;5.53;4.43;;;16.00;71.60;;;;;;6285672;28;20334;-82
2023/10/06 14:21:32;;;;;;;5.63;5.07;;;16.00;72.10;;;;;;6275187;28;20586;-83
2023/10/06 14:24:39;;;;;;;8.23;4.43;;;16.00;71.80;;;;;;6283053;28;20856;-79
2023/10/06 14:27:43;;;;;;;7.13;5.03;;;16.00;72.00;;;;;;6276307;28;20294;-81
2023/10/06 14:30:46;;;;;;;5.50;4.77;;;16.10;72.00;;;;;;6282089;28;20249;-81
2023/10/06 14:33:58;;;;;;;7.63;5.27;;;16.10;71.80;;;;;;6281068;28;20375;-79
2023/10/06 14:37:11;;;;;;;5.83;4.47;;;16.00;72.30;;;;;;6282868;28;20268;-81
2023/10/06 14:46:58;;;;;;;4.80;4.40;;;16.00;73.50;;;;;;6272916;28;20312;-82
2023/10/06 14:50:05;;;;;;;8.80;5.43;;;16.00;73.60;;;;;;6282315;28;20244;-83
2023/10/06 14:53:10;;;;;;;6.33;4.93;;;16.00;73.60;;;;;;6275404;28;20240;-83
2023/10/06 14:56:13;;;;;;;5.50;4.67;;;16.00;73.60;;;;;;6282462;28;20268;-84
2023/10/06 14:59:18;;;;;;;5.40;4.90;;;15.90;73.70;;;;;;6279616;28;20241;-81
2023/10/06 15:02:22;;;;;;;6.93;4.67;;;16.00;73.60;;;;;;6286642;28;20241;-83
2023/10/06 15:05:27;;;;;;;6.00;5.10;;;16.00;73.80;;;;;;6280315;28;20824;-81
2023/10/06 15:08:33;;;;;;;5.07;4.60;;;16.00;73.30;;;;;;6280170;28;20233;-81
2023/10/06 15:11:40;;;;;;;5.00;4.50;;;16.00;73.10;;;;;;6277587;28;20230;-81
2023/10/06 15:14:44;;;;;;;6.63;5.93;;;16.00;73.00;;;;;;6278435;28;20237;-80
2023/10/06 15:17:48;;;;;;;5.63;4.97;;;16.00;72.80;;;;;;6269474;28;20261;-81
2023/10/06 15:21:13;;;;;;;9.03;4.83;;;16.00;72.70;;;;;;6285069;28;20282;-79
2023/10/06 15:24:17;;;;;;;5.00;4.57;;;16.00;72.10;;;;;;6274340;28;20237;-82
2023/10/06 15:27:23;;;;;;;4.93;4.30;;;16.10;72.00;;;;;;6285008;28;20240;-82
2023/10/06 15:30:29;;;;;;;5.10;4.57;;;16.10;72.10;;;;;;6280389;28;20249;-81
2023/10/06 15:33:33;;;;;;;5.93;4.40;;;16.20;72.20;;;;;;6274196;28;20233;-80
2023/10/06 15:36:38;;;;;;;4.47;4.07;;;16.10;72.20;;;;;;6278566;28;20785;-81
2023/10/06 15:39:42;;;;;;;5.00;4.53;;;16.10;72.30;;;;;;6289706;28;20241;-83
2023/10/06 15:42:46;;;;;;;7.37;4.40;;;16.10;72.30;;;;;;6278337;28;20286;-83
2023/10/06 15:45:58;;;;;;;5.10;4.60;;;16.10;72.20;;;;;;6278358;28;20257;-82
2023/10/06 15:49:02;;;;;;;5.63;4.83;;;16.10;72.50;;;;;;6268252;28;20742;-81
2023/10/06 15:52:07;;;;;;;4.83;4.40;;;16.00;72.70;;;;;;6273596;28;20237;-81
2023/10/06 15:55:11;;;;;;;7.60;4.70;;;16.00;72.30;;;;;;6280392;28;20903;-82
2023/10/06 15:58:15;;;;;;;6.23;4.40;;;16.00;72.30;;;;;;6284346;28;20274;-82
2023/10/06 16:01:19;;;;;;;5.13;4.73;;;16.00;72.40;;;;;;6280971;28;20257;-83